Time;durP1;ratioP1;P1;durP2;ratioP2;P2;SDS_P1;SDS_P2;PMS_P1;PMS_P2;Temp;Humidity;BMP_temperature;BMP_pressure;BME280_temperature;BME280_humidity;BME280_pressure;Samples;Min_cycle;Max_cycle;Signal;HPM_P1;HPM_P2
2023/09/17 00:00:13;;;;;;;6.15;4.78;;;23.90;85.10;;;;;;5077219;28;20044;-72
2023/09/17 00:02:40;;;;;;;7.03;4.22;;;23.80;88.10;;;;;;5038567;28;20104;-70
2023/09/17 00:05:06;;;;;;;6.10;4.22;;;24.00;85.90;;;;;;5071544;28;20045;-71
2023/09/17 00:07:32;;;;;;;6.75;3.88;;;23.60;84.80;;;;;;5020397;28;20045;-71
2023/09/17 00:09:58;;;;;;;7.43;4.75;;;23.80;85.10;;;;;;5052796;28;20094;-72
2023/09/17 00:12:24;;;;;;;5.40;4.15;;;24.00;85.50;;;;;;5055291;28;20064;-70
2023/09/17 00:14:50;;;;;;;6.53;4.30;;;24.70;86.20;;;;;;5053026;28;20122;-71
2023/09/17 00:17:16;;;;;;;6.78;4.05;;;23.90;88.40;;;;;;5018311;28;20124;-70
2023/09/17 00:19:42;;;;;;;6.10;3.83;;;23.80;85.10;;;;;;5062019;28;20552;-71
2023/09/17 00:22:11;;;;;;;7.93;4.50;;;24.00;85.40;;;;;;5027363;28;20052;-71
2023/09/17 00:24:37;;;;;;;5.70;4.20;;;23.70;88.20;;;;;;5021932;28;20048;-72
2023/09/17 00:27:03;;;;;;;5.50;4.25;;;23.80;85.10;;;;;;5031609;28;20041;-70
2023/09/17 00:29:29;;;;;;;6.57;4.50;;;23.90;87.80;;;;;;5052986;28;20123;-71
2023/09/17 00:31:55;;;;;;;6.95;4.45;;;23.70;85.10;;;;;;5043818;28;20467;-71
2023/09/17 00:34:21;;;;;;;6.40;4.32;;;24.00;84.80;;;;;;5068355;28;20094;-71
2023/09/17 00:36:47;;;;;;;7.45;4.30;;;24.00;85.50;;;;;;5057131;28;20037;-71
2023/09/17 00:39:13;;;;;;;6.82;4.43;;;23.70;85.20;;;;;;5073199;28;20044;-71
2023/09/17 00:41:39;;;;;;;6.93;4.57;;;24.00;85.60;;;;;;5069393;28;20055;-70
2023/09/17 00:44:05;;;;;;;5.93;3.97;;;24.30;85.50;;;;;;5088796;28;20075;-71
2023/09/17 00:46:31;;;;;;;6.55;4.35;;;23.80;88.50;;;;;;5055270;28;20127;-72
2023/09/17 00:48:57;;;;;;;6.75;4.60;;;23.70;85.20;;;;;;5041937;28;20139;-71
2023/09/17 00:51:23;;;;;;;5.97;4.38;;;23.90;85.40;;;;;;5047484;28;20049;-71
2023/09/17 00:53:49;;;;;;;7.50;4.00;;;24.10;85.40;;;;;;5062030;28;20112;-71
2023/09/17 00:56:15;;;;;;;6.32;4.28;;;23.80;88.50;;;;;;5070718;28;20040;-70
2023/09/17 00:58:41;;;;;;;5.38;3.90;;;23.80;85.30;;;;;;5049585;28;20057;-70
2023/09/17 01:01:08;;;;;;;5.88;3.70;;;23.80;85.40;;;;;;5044857;28;20071;-71
2023/09/17 01:03:36;;;;;;;5.78;3.60;;;24.00;85.50;;;;;;5029730;28;20045;-71
2023/09/17 01:06:02;;;;;;;5.63;4.00;;;23.80;85.50;;;;;;5045574;28;20052;-72
2023/09/17 01:08:28;;;;;;;6.10;4.35;;;24.00;85.90;;;;;;5034208;28;20079;-72
2023/09/17 01:10:57;;;;;;;6.47;4.22;;;23.70;85.20;;;;;;5055004;28;20072;-72
2023/09/17 01:13:23;;;;;;;6.28;4.28;;;23.80;88.30;;;;;;5045318;28;20497;-71
2023/09/17 01:15:51;;;;;;;6.28;4.45;;;23.90;85.30;;;;;;5061747;28;20048;-72
2023/09/17 01:18:21;;;;;;;5.90;4.30;;;24.10;85.50;;;;;;5059920;28;20040;-71
2023/09/17 01:21:00;;;;;;;5.72;4.30;;;23.60;85.50;;;;;;5059501;28;20052;-62
2023/09/17 01:23:50;;;;;;;8.63;4.40;;;23.70;87.90;;;;;;5037070;28;20098;-71
2023/09/17 01:26:19;;;;;;;6.45;4.18;;;23.80;85.80;;;;;;5070280;28;20036;-69
2023/09/17 01:28:45;;;;;;;6.25;4.57;;;;;;;;;;5025305;28;20057;-70
2023/09/17 01:31:12;;;;;;;5.85;4.30;;;23.70;87.90;;;;;;5024387;28;20103;-71
2023/09/17 01:33:38;;;;;;;8.25;4.63;;;24.00;88.30;;;;;;5056835;28;20594;-70
2023/09/17 01:36:08;;;;;;;6.57;4.68;;;23.80;85.40;;;;;;5058900;28;20079;-71
2023/09/17 01:38:39;;;;;;;6.55;4.22;;;23.80;87.80;;;;;;5020191;28;20052;-69
2023/09/17 01:41:04;;;;;;;6.65;4.30;;;23.80;85.40;;;;;;5029294;28;20053;-71
2023/09/17 01:43:31;;;;;;;5.40;3.88;;;23.80;86.00;;;;;;5058575;28;20405;-71
2023/09/17 01:45:57;;;;;;;6.60;4.15;;;23.90;85.50;;;;;;5053394;28;20040;-71
2023/09/17 01:48:24;;;;;;;7.45;3.50;;;23.90;85.60;;;;;;5068781;28;20414;-71
2023/09/17 01:50:50;;;;;;;5.38;3.20;;;23.70;85.00;;;;;;5047863;28;20132;-69
2023/09/17 01:53:16;;;;;;;5.78;3.65;;;24.00;85.30;;;;;;5043560;28;20040;-70
2023/09/17 01:55:43;;;;;;;4.90;3.28;;;;;;;;;;5058324;28;20049;-70
2023/09/17 01:58:10;;;;;;;5.45;3.42;;;23.80;83.30;;;;;;5061591;28;20028;-67
2023/09/17 02:00:37;;;;;;;5.18;3.47;;;23.80;85.50;;;;;;5056614;28;20383;-70
2023/09/17 02:03:08;;;;;;;5.68;3.45;;;22.40;84.70;;;;;;5048921;28;20036;-68
2023/09/17 02:05:34;;;;;;;5.07;3.60;;;24.00;85.70;;;;;;5076569;28;20057;-69
2023/09/17 02:08:00;;;;;;;5.07;3.60;;;;;;;;;;5042005;28;20499;-69
2023/09/17 02:10:26;;;;;;;5.05;3.67;;;23.70;83.30;;;;;;5064617;28;20037;-69
2023/09/17 02:12:52;;;;;;;5.70;3.40;;;24.00;85.50;;;;;;5046350;28;20501;-70
2023/09/17 02:15:19;;;;;;;5.03;3.17;;;23.40;85.00;;;;;;5037994;28;20453;-70
2023/09/17 02:17:45;;;;;;;5.43;3.65;;;23.90;85.30;;;;;;5065081;28;20045;-70
2023/09/17 02:20:11;;;;;;;4.90;3.47;;;23.70;85.10;;;;;;5070028;28;20390;-69
2023/09/17 02:22:39;;;;;;;10.20;3.65;;;23.60;85.10;;;;;;5037231;28;20514;-70
2023/09/17 02:25:06;;;;;;;5.65;3.90;;;23.30;88.20;;;;;;5055681;28;20063;-69
2023/09/17 02:27:33;;;;;;;5.35;3.63;;;23.60;85.10;;;;;;5069449;28;20033;-70
2023/09/17 02:29:59;;;;;;;5.50;3.45;;;23.60;85.20;;;;;;5071540;28;20053;-70
2023/09/17 02:32:25;;;;;;;6.00;4.10;;;23.80;88.40;;;;;;5024166;28;20033;-69
2023/09/17 02:34:50;;;;;;;5.85;3.40;;;23.80;85.20;;;;;;5014143;28;20048;-71
2023/09/17 02:37:19;;;;;;;5.15;3.47;;;23.90;85.30;;;;;;5042122;28;20129;-71
2023/09/17 02:39:45;;;;;;;5.50;3.83;;;23.70;88.50;;;;;;5056126;28;20072;-70
2023/09/17 02:42:11;;;;;;;6.00;3.90;;;;;;;;;;5020601;28;20178;-70
2023/09/17 02:44:37;;;;;;;6.35;3.97;;;23.80;83.50;;;;;;5023805;28;20449;-71
2023/09/17 02:47:03;;;;;;;5.43;3.58;;;23.80;85.30;;;;;;5034880;28;20037;-71
2023/09/17 02:49:29;;;;;;;5.13;3.80;;;23.50;84.80;;;;;;5026357;28;20056;-71
2023/09/17 02:51:58;;;;;;;5.72;3.80;;;23.80;85.40;;;;;;5048541;28;20083;-71
2023/09/17 02:54:24;;;;;;;5.90;4.43;;;23.60;85.40;;;;;;5048758;28;20036;-71
2023/09/17 02:56:50;;;;;;;5.68;3.83;;;23.60;88.20;;;;;;5032156;28;20049;-72
2023/09/17 02:59:18;;;;;;;5.28;3.97;;;23.60;88.80;;;;;;5088467;28;20072;-71
2023/09/17 03:01:44;;;;;;;6.65;4.03;;;23.60;85.60;;;;;;5067293;28;20102;-71
2023/09/17 03:04:10;;;;;;;5.90;3.90;;;23.70;88.20;;;;;;5060221;28;20044;-70
2023/09/17 03:06:37;;;;;;;5.80;3.72;;;23.70;85.70;;;;;;5030668;28;20041;-71
2023/09/17 03:09:10;;;;;;;5.40;3.83;;;23.60;87.70;;;;;;5037768;28;20128;-71
2023/09/17 03:11:36;;;;;;;5.60;3.90;;;23.60;85.40;;;;;;5055237;28;20062;-71
2023/09/17 03:14:02;;;;;;;7.25;4.45;;;23.60;88.50;;;;;;5074117;23;20142;-70
2023/09/17 03:16:29;;;;;;;5.57;3.90;;;24.10;85.80;;;;;;5075990;28;20040;-72
2023/09/17 03:18:55;;;;;;;6.63;4.45;;;23.60;87.90;;;;;;5090362;28;20035;-70
2023/09/17 03:21:21;;;;;;;6.78;4.25;;;23.40;85.60;;;;;;5055730;28;20083;-62
2023/09/17 03:23:47;;;;;;;5.65;4.05;;;23.60;88.50;;;;;;5091426;28;20079;-65
2023/09/17 03:26:13;;;;;;;5.90;3.80;;;23.80;85.50;;;;;;5093249;28;20059;-70
2023/09/17 03:28:39;;;;;;;5.90;3.80;;;24.00;89.20;;;;;;5076838;28;20059;-71
2023/09/17 03:31:05;;;;;;;5.53;3.65;;;23.70;86.10;;;;;;5076398;28;20048;-71
2023/09/17 03:33:34;;;;;;;6.88;4.00;;;23.50;85.70;;;;;;5044587;28;20110;-71
2023/09/17 03:36:00;;;;;;;5.53;3.70;;;23.70;85.80;;;;;;5072101;28;20044;-71
2023/09/17 03:38:26;;;;;;;5.57;3.95;;;23.70;86.70;;;;;;5090455;28;20054;-70
2023/09/17 03:40:52;;;;;;;5.85;3.83;;;23.50;85.60;;;;;;5087965;28;20044;-69
2023/09/17 03:43:18;;;;;;;5.57;3.72;;;23.40;85.60;;;;;;5088621;28;20048;-70
2023/09/17 03:45:45;;;;;;;5.32;4.03;;;;;;;;;;5092660;28;20041;-63
2023/09/17 03:48:12;;;;;;;7.38;4.53;;;;;;;;;;5093832;28;20129;-71
2023/09/17 03:50:39;;;;;;;6.65;4.30;;;23.90;89.10;;;;;;5093933;28;20516;-72
2023/09/17 03:53:05;;;;;;;6.07;4.20;;;23.50;88.90;;;;;;5075060;28;20048;-71
2023/09/17 03:55:33;;;;;;;6.38;4.75;;;23.40;85.70;;;;;;5074710;28;20079;-71
2023/09/17 03:58:00;;;;;;;6.10;4.10;;;23.80;86.30;;;;;;5094164;28;20116;-71
2023/09/17 04:00:26;;;;;;;6.35;4.00;;;23.70;88.20;;;;;;5072684;22;20107;-70
2023/09/17 04:02:52;;;;;;;7.18;4.85;;;23.50;88.00;;;;;;5034522;28;20044;-70
2023/09/17 04:05:18;;;;;;;5.72;4.22;;;23.70;85.90;;;;;;5033244;28;20077;-71
2023/09/17 04:07:45;;;;;;;6.15;3.95;;;23.70;85.90;;;;;;5001622;28;20041;-71
2023/09/17 04:10:12;;;;;;;5.80;4.40;;;23.60;86.10;;;;;;5035943;28;20391;-71
2023/09/17 04:12:39;;;;;;;6.25;4.50;;;25.10;86.60;;;;;;5018449;28;20507;-71
2023/09/17 04:15:09;;;;;;;6.18;3.80;;;23.70;86.20;;;;;;5016464;28;20141;-71
2023/09/17 04:17:35;;;;;;;7.10;4.18;;;25.30;86.50;;;;;;5032467;28;20148;-71
2023/09/17 04:20:02;;;;;;;7.85;4.57;;;23.60;86.00;;;;;;5034768;28;20099;-70
2023/09/17 04:22:28;;;;;;;5.80;4.03;;;23.50;86.00;;;;;;5035671;28;20501;-71
2023/09/17 04:24:55;;;;;;;7.35;4.85;;;23.60;89.00;;;;;;5051781;28;20118;-64
2023/09/17 04:27:21;;;;;;;7.07;4.88;;;23.60;85.90;;;;;;5059570;28;20128;-65
2023/09/17 04:29:47;;;;;;;7.95;4.82;;;23.60;88.70;;;;;;5033833;28;20125;-71
2023/09/17 04:32:13;;;;;;;5.78;4.68;;;23.60;86.10;;;;;;5028811;28;20153;-71
2023/09/17 04:34:39;;;;;;;5.90;4.70;;;23.80;86.00;;;;;;5051274;28;20040;-71
2023/09/17 04:37:05;;;;;;;5.88;4.53;;;23.70;89.10;;;;;;5033544;28;20040;-71
2023/09/17 04:39:30;;;;;;;6.22;4.60;;;23.50;86.10;;;;;;5018446;28;20040;-71
2023/09/17 04:41:56;;;;;;;7.65;4.65;;;23.60;85.80;;;;;;5018314;28;20052;-71
2023/09/17 04:44:22;;;;;;;6.30;4.78;;;23.90;86.40;;;;;;5001566;28;20044;-71
2023/09/17 04:46:48;;;;;;;8.43;5.30;;;23.70;86.00;;;;;;5017401;28;20115;-71
2023/09/17 04:49:14;;;;;;;7.53;5.10;;;23.60;86.20;;;;;;5018078;28;20040;-71
2023/09/17 04:51:40;;;;;;;6.10;4.53;;;23.80;86.30;;;;;;5051400;28;20041;-71
2023/09/17 04:54:06;;;;;;;5.93;4.32;;;23.70;89.00;;;;;;5032725;28;20388;-70
2023/09/17 04:56:32;;;;;;;7.28;5.18;;;23.60;86.20;;;;;;5039557;28;20052;-71
2023/09/17 04:58:58;;;;;;;6.65;4.22;;;25.50;87.20;;;;;;5002382;28;20045;-72
2023/09/17 05:01:24;;;;;;;6.93;5.07;;;23.70;86.30;;;;;;5001596;28;20087;-71
2023/09/17 05:03:50;;;;;;;6.05;4.50;;;23.70;86.40;;;;;;5027521;28;20044;-71
2023/09/17 05:06:16;;;;;;;7.85;5.35;;;23.60;88.90;;;;;;5032537;28;20052;-71
2023/09/17 05:08:42;;;;;;;7.50;5.32;;;23.70;86.20;;;;;;5014362;28;20052;-71
2023/09/17 05:11:08;;;;;;;7.80;5.05;;;23.60;86.20;;;;;;5032740;28;20045;-71
2023/09/17 05:13:34;;;;;;;6.22;4.78;;;23.60;86.30;;;;;;5018035;28;20452;-71
2023/09/17 05:15:59;;;;;;;7.05;5.05;;;23.80;86.20;;;;;;5050604;28;20453;-71
2023/09/17 05:18:25;;;;;;;6.95;5.40;;;23.50;86.10;;;;;;5033494;28;20390;-71
2023/09/17 05:20:53;;;;;;;6.32;4.95;;;23.80;86.30;;;;;;5017847;28;20501;-71
2023/09/17 05:23:22;;;;;;;6.55;4.72;;;23.70;86.40;;;;;;4999901;28;20111;-70
2023/09/17 05:25:48;;;;;;;7.55;5.38;;;23.80;86.50;;;;;;5017611;28;20560;-72
2023/09/17 05:28:14;;;;;;;6.50;4.88;;;23.60;86.60;;;;;;5031399;28;20185;-70
2023/09/17 05:30:41;;;;;;;6.00;4.35;;;23.60;86.40;;;;;;5014149;28;20049;-70
2023/09/17 05:33:07;;;;;;;6.90;4.82;;;23.50;86.90;;;;;;5047383;28;20158;-71
2023/09/17 05:35:34;;;;;;;6.45;5.20;;;;;;;;;;5017150;28;20048;-70
2023/09/17 05:38:00;;;;;;;7.45;4.75;;;23.20;84.40;;;;;;5051002;28;20037;-70
2023/09/17 05:40:27;;;;;;;6.43;4.78;;;23.50;89.10;;;;;;5051482;28;20045;-71
2023/09/17 05:42:53;;;;;;;5.40;4.05;;;23.70;86.70;;;;;;5033100;28;20131;-70
2023/09/17 05:45:19;;;;;;;6.15;4.40;;;23.60;86.20;;;;;;5049335;28;20080;-71
2023/09/17 05:47:45;;;;;;;8.40;5.15;;;23.40;89.00;;;;;;5050189;28;20466;-69
2023/09/17 05:50:11;;;;;;;6.13;4.53;;;;;;;;;;5051612;28;20045;-71
2023/09/17 05:52:41;;;;;;;7.03;4.40;;;23.60;89.80;;;;;;5033686;28;20444;-70
2023/09/17 05:55:09;;;;;;;6.30;4.30;;;23.70;85.40;;;;;;5049413;28;20044;-70
2023/09/17 05:57:35;;;;;;;6.57;4.38;;;23.60;88.90;;;;;;5032361;28;20098;-71
2023/09/17 06:00:03;;;;;;;6.80;5.50;;;23.60;86.70;;;;;;5032824;28;20056;-70
2023/09/17 06:02:29;;;;;;;6.03;4.43;;;23.60;90.00;;;;;;5051089;28;20127;-70
2023/09/17 06:04:55;;;;;;;6.45;5.18;;;23.60;86.40;;;;;;5033580;28;20041;-70
2023/09/17 06:07:22;;;;;;;6.70;4.97;;;;;;;;;;4983894;28;20052;-68
2023/09/17 06:09:51;;;;;;;5.43;4.30;;;23.60;84.70;;;;;;4995012;28;20045;-69
2023/09/17 06:12:17;;;;;;;8.93;5.30;;;24.30;87.10;;;;;;5013818;28;20080;-71
2023/09/17 06:14:43;;;;;;;7.03;5.75;;;23.60;89.50;;;;;;5033388;28;20123;-71
2023/09/17 06:17:09;;;;;;;8.52;5.68;;;23.80;86.90;;;;;;5016215;28;20091;-71
2023/09/17 06:19:37;;;;;;;7.05;5.10;;;23.40;86.20;;;;;;5061088;28;20049;-70
2023/09/17 06:22:03;;;;;;;7.10;5.50;;;23.80;89.50;;;;;;5000597;28;20516;-70
2023/09/17 06:24:29;;;;;;;6.32;5.00;;;23.70;90.00;;;;;;5016058;28;20380;-71
2023/09/17 06:26:55;;;;;;;7.43;4.82;;;23.80;86.50;;;;;;5000370;28;20057;-70
2023/09/17 06:29:22;;;;;;;6.80;4.85;;;23.40;86.80;;;;;;5047774;28;20053;-70
2023/09/17 06:31:48;;;;;;;7.13;5.55;;;23.40;87.00;;;;;;5017731;28;20566;-71
2023/09/17 06:34:14;;;;;;;6.60;4.90;;;23.70;86.90;;;;;;4998948;28;20041;-70
2023/09/17 06:36:40;;;;;;;7.07;5.13;;;23.80;90.00;;;;;;5016894;28;20056;-70
2023/09/17 06:39:06;;;;;;;6.68;4.70;;;23.80;86.80;;;;;;5024458;28;20053;-71
2023/09/17 06:41:32;;;;;;;7.95;5.28;;;23.80;86.90;;;;;;5051249;28;20116;-71
2023/09/17 06:43:58;;;;;;;7.85;6.10;;;23.60;89.20;;;;;;5048807;28;20049;-72
2023/09/17 06:46:25;;;;;;;6.38;4.85;;;;;;;;;;5020678;28;20037;-71
2023/09/17 06:48:51;;;;;;;7.82;6.80;;;23.80;84.90;;;;;;5035939;28;20119;-72
2023/09/17 06:51:17;;;;;;;7.70;5.75;;;24.10;87.70;;;;;;5037164;28;20045;-71
2023/09/17 06:53:43;;;;;;;6.38;5.18;;;23.80;86.80;;;;;;5035281;28;20033;-71
2023/09/17 06:56:13;;;;;;;6.05;4.93;;;24.00;87.30;;;;;;5018326;28;20040;-71
2023/09/17 06:58:39;;;;;;;6.63;4.93;;;23.70;87.40;;;;;;5053436;28;20041;-72
2023/09/17 07:01:05;;;;;;;6.15;4.95;;;23.90;86.60;;;;;;5054286;28;20048;-70
2023/09/17 07:03:32;;;;;;;7.55;5.50;;;23.90;86.60;;;;;;5053291;28;20053;-72
2023/09/17 07:05:58;;;;;;;7.18;6.20;;;23.90;86.70;;;;;;5036645;28;20509;-71
2023/09/17 07:08:24;;;;;;;7.65;6.38;;;23.70;86.80;;;;;;5035081;28;20120;-72
2023/09/17 07:10:50;;;;;;;6.50;5.07;;;23.80;86.80;;;;;;5019977;28;20064;-71
2023/09/17 07:13:16;;;;;;;7.57;6.20;;;23.90;89.70;;;;;;5034744;28;20510;-71
2023/09/17 07:15:44;;;;;;;6.82;5.40;;;23.90;86.80;;;;;;5054392;28;20053;-72
2023/09/17 07:18:12;;;;;;;8.63;5.55;;;24.20;86.90;;;;;;5036015;28;20056;-64
2023/09/17 07:20:38;;;;;;;7.50;5.47;;;24.00;86.40;;;;;;5036314;28;20049;-69
2023/09/17 07:23:08;;;;;;;6.82;4.90;;;24.10;86.90;;;;;;5052994;28;20056;-66
2023/09/17 07:25:34;;;;;;;7.20;4.22;;;23.80;89.80;;;;;;5035223;28;20033;-72
2023/09/17 07:28:06;;;;;;;6.63;5.22;;;24.00;86.70;;;;;;5053240;28;20143;-72
2023/09/17 07:30:34;;;;;;;7.15;5.68;;;23.90;86.60;;;;;;5046669;28;20056;-72
2023/09/17 07:33:02;;;;;;;7.32;6.07;;;23.80;86.60;;;;;;5020218;28;20096;-72
2023/09/17 07:35:34;;;;;;;7.40;5.70;;;24.00;86.90;;;;;;5052938;28;20029;-72
2023/09/17 07:38:00;;;;;;;6.30;4.50;;;23.80;85.20;;;;;;5053259;28;20453;-72
2023/09/17 07:40:26;;;;;;;8.13;6.43;;;24.10;89.90;;;;;;4985836;28;20049;-72
2023/09/17 07:42:52;;;;;;;8.80;5.63;;;22.80;86.10;;;;;;5003585;28;20060;-73
2023/09/17 07:45:18;;;;;;;10.57;7.38;;;26.30;89.30;;;;;;5018493;28;20041;-72
2023/09/17 07:47:44;;;;;;;9.32;7.38;;;24.40;86.20;;;;;;5019526;28;20076;-73
2023/09/17 07:50:10;;;;;;;8.23;6.38;;;24.20;86.20;;;;;;5002144;28;20045;-73
2023/09/17 07:52:37;;;;;;;8.25;6.32;;;24.30;85.80;;;;;;5019296;28;20055;-71
2023/09/17 07:55:04;;;;;;;7.55;5.65;;;24.30;86.00;;;;;;5024714;28;20056;-73
2023/09/17 07:57:31;;;;;;;7.75;6.35;;;24.60;85.70;;;;;;5035377;28;20041;-73
2023/09/17 07:59:57;;;;;;;8.00;5.75;;;24.30;85.70;;;;;;5047772;28;20111;-72
2023/09/17 08:02:23;;;;;;;7.05;5.63;;;24.60;85.90;;;;;;4998346;28;20041;-73
2023/09/17 08:04:48;;;;;;;8.77;7.30;;;24.60;85.80;;;;;;4995065;28;20475;-73
2023/09/17 08:07:16;;;;;;;9.23;8.18;;;24.70;85.90;;;;;;4987461;28;20494;-72
2023/09/17 08:09:45;;;;;;;8.73;7.75;;;24.70;89.10;;;;;;5014032;28;20042;-72
2023/09/17 08:12:11;;;;;;;8.00;4.95;;;24.70;86.20;;;;;;5013210;28;20049;-72
2023/09/17 08:14:39;;;;;;;7.28;4.95;;;24.60;85.60;;;;;;4982985;28;20498;-72
2023/09/17 08:17:04;;;;;;;7.15;5.20;;;24.60;85.50;;;;;;5014835;28;20037;-73
2023/09/17 08:19:33;;;;;;;7.88;5.97;;;24.80;85.20;;;;;;5014775;28;20053;-72
2023/09/17 08:21:59;;;;;;;8.88;7.45;;;24.90;85.20;;;;;;5026104;28;20053;-65
2023/09/17 08:24:25;;;;;;;8.70;6.65;;;24.80;88.20;;;;;;5030399;28;20168;-73
2023/09/17 08:26:54;;;;;;;7.30;6.25;;;24.80;85.10;;;;;;5032714;28;20045;-72
2023/09/17 08:29:20;;;;;;;8.13;5.80;;;24.80;84.20;;;;;;5032872;28;20095;-72
2023/09/17 08:31:47;;;;;;;9.05;6.75;;;24.90;87.40;;;;;;5031570;28;20056;-73
2023/09/17 08:34:14;;;;;;;8.35;6.13;;;24.90;85.20;;;;;;5033042;28;20046;-62
2023/09/17 08:36:40;;;;;;;9.48;6.70;;;24.80;88.10;;;;;;5032447;28;20050;-73
2023/09/17 08:39:08;;;;;;;8.75;6.95;;;24.90;87.70;;;;;;5031043;28;20045;-73
2023/09/17 08:41:35;;;;;;;8.60;7.18;;;24.90;87.60;;;;;;5031872;28;20045;-73
2023/09/17 08:44:03;;;;;;;8.48;6.88;;;24.90;85.10;;;;;;5013296;28;20060;-73
2023/09/17 08:46:32;;;;;;;8.25;6.68;;;24.70;85.10;;;;;;4997401;28;20224;-73
2023/09/17 08:49:01;;;;;;;8.68;7.50;;;24.60;87.50;;;;;;5031246;28;20434;-74
2023/09/17 08:51:28;;;;;;;9.00;7.43;;;24.80;85.50;;;;;;5015615;28;20042;-73
2023/09/17 08:53:57;;;;;;;10.15;7.40;;;24.80;85.30;;;;;;5031152;28;20045;-73
2023/09/17 08:56:23;;;;;;;9.32;7.65;;;24.70;85.40;;;;;;5032822;28;20100;-74
2023/09/17 08:58:52;;;;;;;8.90;7.15;;;24.70;87.50;;;;;;5012337;28;20041;-73
2023/09/17 09:01:20;;;;;;;8.85;6.45;;;24.90;85.40;;;;;;5013593;28;20135;-73
2023/09/17 09:03:46;;;;;;;9.77;8.07;;;24.70;85.70;;;;;;5058456;28;20052;-64
2023/09/17 09:06:12;;;;;;;8.52;6.95;;;24.80;84.90;;;;;;5052510;28;20383;-61
2023/09/17 09:08:39;;;;;;;8.57;6.97;;;24.80;88.10;;;;;;5051575;28;20056;-62
2023/09/17 09:11:06;;;;;;;8.57;6.72;;;24.70;87.90;;;;;;5017188;28;20053;-64
2023/09/17 09:13:32;;;;;;;8.48;6.68;;;24.70;85.20;;;;;;5050678;28;20277;-65
2023/09/17 09:15:57;;;;;;;7.82;5.97;;;24.80;85.10;;;;;;5044382;28;20120;-63
2023/09/17 09:18:26;;;;;;;8.18;7.20;;;25.00;85.10;;;;;;5049614;28;20116;-67
2023/09/17 09:20:52;;;;;;;8.70;6.63;;;24.80;83.80;;;;;;5032117;28;20400;-65
2023/09/17 09:23:19;;;;;;;7.88;6.97;;;24.60;84.80;;;;;;5032882;28;20040;-72
2023/09/17 09:25:45;;;;;;;8.40;7.13;;;24.50;85.00;;;;;;5064793;28;20048;-73
2023/09/17 09:28:11;;;;;;;8.60;7.03;;;24.90;85.10;;;;;;5049890;28;20095;-63
2023/09/17 09:30:37;;;;;;;9.15;7.32;;;24.60;85.00;;;;;;5033484;28;20080;-62
2023/09/17 09:33:03;;;;;;;10.07;7.68;;;24.60;88.20;;;;;;5044320;28;20071;-66
2023/09/17 09:35:30;;;;;;;7.80;6.57;;;24.50;84.80;;;;;;5033261;28;20040;-64
2023/09/17 09:37:56;;;;;;;8.02;5.97;;;24.80;85.30;;;;;;5026178;28;20108;-60
2023/09/17 09:40:25;;;;;;;6.88;5.60;;;24.60;84.90;;;;;;5011593;28;20131;-67
2023/09/17 09:42:51;;;;;;;8.32;6.63;;;24.60;84.90;;;;;;5030182;28;20399;-62
2023/09/17 09:45:17;;;;;;;9.35;6.70;;;24.50;85.20;;;;;;5016833;28;20045;-61
2023/09/17 09:47:49;;;;;;;7.78;6.03;;;24.70;85.10;;;;;;5026593;28;20036;-61
2023/09/17 09:50:22;;;;;;;;;;;24.40;85.50;;;;;;5059469;28;20041;-72
2023/09/17 09:52:48;;;;;;;10.20;6.90;;;24.70;84.30;;;;;;5026984;28;19921;-72
2023/09/17 09:55:14;;;;;;;8.63;6.03;;;24.70;85.20;;;;;;5051465;28;20041;-71
2023/09/17 09:57:42;;;;;;;8.68;6.68;;;24.60;85.10;;;;;;5050622;28;20037;-72
2023/09/17 10:00:15;;;;;;;7.80;6.05;;;24.80;85.50;;;;;;5026720;28;20060;-73
2023/09/17 10:02:42;;;;;;;8.23;7.20;;;24.80;85.20;;;;;;5014645;28;20058;-72
2023/09/17 10:05:10;;;;;;;7.55;6.18;;;24.70;85.20;;;;;;5031627;28;20049;-72
2023/09/17 10:07:39;;;;;;;9.20;7.32;;;24.90;85.10;;;;;;4981091;28;20068;-70
2023/09/17 10:10:07;;;;;;;8.75;6.85;;;25.10;84.90;;;;;;4997303;28;20033;-73
2023/09/17 10:12:34;;;;;;;9.02;6.95;;;25.00;84.60;;;;;;4996375;28;20034;-72
2023/09/17 10:15:00;;;;;;;7.70;6.57;;;25.10;84.90;;;;;;5013225;28;20053;-72
2023/09/17 10:17:26;;;;;;;8.80;7.53;;;25.20;84.90;;;;;;4995752;28;20065;-71
2023/09/17 10:19:52;;;;;;;9.13;6.93;;;25.00;84.50;;;;;;5011985;28;20384;-71
2023/09/17 10:22:18;;;;;;;9.77;7.22;;;24.90;84.90;;;;;;5034073;28;20486;-72
2023/09/17 10:24:44;;;;;;;8.85;6.85;;;24.70;88.20;;;;;;5015957;28;20044;-72
2023/09/17 10:27:13;;;;;;;8.35;6.22;;;25.40;85.70;;;;;;5016845;28;20053;-72
2023/09/17 10:29:41;;;;;;;9.40;6.10;;;;;;;;;;5000530;28;20034;-72
2023/09/17 10:32:07;;;;;;;9.10;5.75;;;24.80;83.00;;;;;;5033064;28;20098;-72
2023/09/17 10:34:35;;;;;;;8.57;6.38;;;24.80;85.00;;;;;;5017370;28;20380;-72
2023/09/17 10:37:04;;;;;;;8.10;6.32;;;24.90;85.20;;;;;;5030652;28;20077;-72
2023/09/17 10:39:33;;;;;;;10.00;6.57;;;24.80;88.40;;;;;;5029787;28;20483;-74
2023/09/17 10:42:02;;;;;;;7.38;5.60;;;25.10;84.10;;;;;;5014692;28;20034;-73
2023/09/17 10:44:36;;;;;;;8.57;6.25;;;23.10;84.50;;;;;;5033411;28;20383;-72
2023/09/17 10:47:03;;;;;;;7.85;5.97;;;24.70;84.10;;;;;;5018025;28;20520;-73
2023/09/17 10:49:31;;;;;;;8.60;6.43;;;;;;;;;;5034223;28;20455;-62
2023/09/17 10:51:57;;;;;;;9.02;6.70;;;24.70;83.50;;;;;;5034171;28;20458;-62
2023/09/17 10:54:23;;;;;;;8.50;7.13;;;24.70;84.90;;;;;;5017675;28;20108;-61
2023/09/17 10:56:49;;;;;;;11.18;6.50;;;24.70;85.10;;;;;;5017258;28;20160;-63
2023/09/17 10:59:16;;;;;;;7.78;6.22;;;24.80;85.00;;;;;;5015737;28;20502;-61
2023/09/17 11:01:42;;;;;;;9.10;6.55;;;25.00;85.50;;;;;;5053436;28;20100;-62
2023/09/17 11:04:16;;;;;;;9.30;7.07;;;24.90;85.10;;;;;;5018772;28;20076;-62
2023/09/17 11:06:47;;;;;;;9.27;6.55;;;24.90;85.40;;;;;;5036746;28;20085;-64
2023/09/17 11:09:35;;;;;;;9.27;6.47;;;24.80;84.20;;;;;;5047484;28;20410;-62
2023/09/17 11:12:03;;;;;;;10.88;8.00;;;24.60;84.10;;;;;;5052088;28;20513;-64
2023/09/17 11:14:30;;;;;;;8.63;7.10;;;24.80;85.00;;;;;;5001573;28;20045;-73
2023/09/17 11:16:56;;;;;;;8.77;7.30;;;24.80;85.50;;;;;;5003722;28;20040;-72
2023/09/17 11:19:22;;;;;;;11.15;6.95;;;25.00;85.60;;;;;;5014397;28;20080;-72
2023/09/17 11:22:04;;;;;;;8.98;6.93;;;25.00;85.50;;;;;;5002078;28;20033;-71
2023/09/17 11:24:31;;;;;;;8.45;6.88;;;24.80;84.30;;;;;;5035772;28;20166;-72
2023/09/17 11:26:57;;;;;;;8.13;6.97;;;24.60;85.60;;;;;;5031985;28;20127;-70
2023/09/17 11:29:42;;;;;;;8.05;6.55;;;24.90;86.40;;;;;;5036336;28;20422;-72
2023/09/17 11:32:09;;;;;;;10.27;7.85;;;25.10;86.40;;;;;;5032878;28;20076;-62
2023/09/17 11:34:39;;;;;;;11.45;6.55;;;24.70;85.60;;;;;;5016022;28;20517;-72
2023/09/17 11:37:08;;;;;;;8.68;6.78;;;22.90;84.80;;;;;;4996307;28;20049;-62
2023/09/17 11:39:36;;;;;;;10.80;6.70;;;25.00;85.30;;;;;;5020384;28;20048;-72
2023/09/17 11:42:05;;;;;;;8.77;6.38;;;25.10;85.70;;;;;;5033369;28;20399;-72
2023/09/17 11:44:32;;;;;;;9.50;7.32;;;25.10;85.00;;;;;;5001105;28;20079;-73
2023/09/17 11:46:59;;;;;;;12.35;8.65;;;24.90;85.50;;;;;;4998848;28;20052;-76
2023/09/17 11:49:26;;;;;;;10.60;7.85;;;25.30;85.20;;;;;;5026091;28;20486;-61
2023/09/17 11:51:54;;;;;;;10.85;8.27;;;25.40;85.30;;;;;;4997801;28;20100;-76
2023/09/17 11:54:23;;;;;;;11.30;7.00;;;25.40;85.00;;;;;;5036754;28;20045;-76
2023/09/17 11:56:53;;;;;;;11.13;7.80;;;25.50;85.50;;;;;;5036442;28;20498;-76
2023/09/17 11:59:20;;;;;;;9.88;7.80;;;25.40;85.20;;;;;;5054587;28;20068;-76
2023/09/17 12:01:49;;;;;;;10.02;8.88;;;25.30;85.00;;;;;;5031282;28;20057;-76
2023/09/17 12:04:16;;;;;;;11.02;8.35;;;25.20;84.90;;;;;;5034183;28;20147;-76
2023/09/17 12:06:49;;;;;;;9.80;8.23;;;25.40;85.30;;;;;;5016277;28;20038;-76
2023/09/17 12:09:21;;;;;;;11.80;6.97;;;25.40;83.70;;;;;;5016202;28;20045;-76
2023/09/17 12:11:48;;;;;;;10.60;7.93;;;25.20;84.50;;;;;;5033272;28;20037;-77
2023/09/17 12:14:15;;;;;;;11.50;8.52;;;25.30;84.30;;;;;;5016493;28;20067;-77
2023/09/17 12:16:41;;;;;;;12.30;8.43;;;25.40;84.80;;;;;;5034271;28;20049;-77
2023/09/17 12:19:08;;;;;;;9.63;7.45;;;25.50;87.70;;;;;;5031456;28;20073;-76
2023/09/17 12:21:41;;;;;;;10.80;7.45;;;25.20;84.60;;;;;;5031188;28;20127;-75
2023/09/17 12:24:17;;;;;;;8.95;7.32;;;25.50;85.40;;;;;;5015219;28;20046;-76
2023/09/17 12:27:22;;;;;;;9.88;7.15;;;25.40;88.10;;;;;;5029735;28;20124;-76
2023/09/17 12:29:49;;;;;;;9.38;7.30;;;25.40;85.50;;;;;;5033495;28;20045;-76
2023/09/17 12:32:17;;;;;;;10.63;8.18;;;25.40;83.80;;;;;;5033460;28;20487;-76
2023/09/17 12:34:43;;;;;;;10.32;7.53;;;25.10;85.00;;;;;;5013119;28;20514;-76
2023/09/17 12:37:12;;;;;;;10.15;7.55;;;25.40;84.60;;;;;;5016146;28;20076;-76
2023/09/17 12:39:41;;;;;;;9.55;6.93;;;25.30;84.00;;;;;;5033115;28;20044;-75
2023/09/17 12:42:08;;;;;;;9.98;7.82;;;25.30;88.20;;;;;;5016111;28;20530;-76
2023/09/17 12:44:34;;;;;;;8.60;6.38;;;25.40;84.80;;;;;;5032844;28;20120;-77
2023/09/17 12:47:00;;;;;;;8.50;5.85;;;25.20;85.10;;;;;;5033488;28;20053;-77
2023/09/17 12:49:27;;;;;;;7.70;6.50;;;25.30;84.70;;;;;;5032682;28;20439;-77